createdAt,value
2023-03-10T00:01:51.888Z,91993.66
2023-03-10T00:04:21.322Z,91991.88
2023-03-10T00:06:50.804Z,91979.47
2023-03-10T00:09:21.621Z,91992.72
2023-03-10T00:11:50.924Z,91986.09
2023-03-10T00:14:20.327Z,91999.44
2023-03-10T00:16:49.725Z,91993.53
2023-03-10T00:19:19.112Z,91998.38
2023-03-10T00:21:48.569Z,91993.97
2023-03-10T00:24:17.911Z,91995.09
2023-03-10T00:26:50.448Z,91993.34
2023-03-10T00:29:20.254Z,91997.75
2023-03-10T00:31:49.856Z,91987.00
2023-03-10T00:34:19.347Z,91988.66
2023-03-10T00:36:48.910Z,91982.03
2023-03-10T00:39:18.245Z,91972.00
2023-03-10T00:41:50.878Z,91969.72
2023-03-10T00:44:20.411Z,91970.25
2023-03-10T00:46:50.300Z,91963.53
2023-03-10T00:50:28.065Z,91963.72
2023-03-10T00:52:57.453Z,91975.00
2023-03-10T00:55:26.839Z,91969.31
2023-03-10T00:57:56.253Z,91975.50
2023-03-10T01:00:26.814Z,91982.72
2023-03-10T01:02:56.197Z,91976.53
2023-03-10T01:05:29.251Z,91976.00
2023-03-10T01:07:58.660Z,91973.59
2023-03-10T01:10:27.886Z,91974.97
2023-03-10T01:12:57.196Z,91980.00
2023-03-10T01:15:26.592Z,91981.47
2023-03-10T01:17:55.973Z,91982.94
2023-03-10T01:20:26.857Z,91974.53
2023-03-10T01:22:56.174Z,91974.75
2023-03-10T01:25:25.782Z,91982.59
2023-03-10T01:27:55.145Z,91990.47
2023-03-10T01:30:24.461Z,91988.19
2023-03-10T01:32:53.841Z,91988.66
2023-03-10T01:35:23.358Z,91974.81
2023-03-10T01:37:54.109Z,91980.44
2023-03-10T01:40:23.541Z,91979.59
2023-03-10T01:42:52.805Z,91980.72
2023-03-10T01:46:32.167Z,91989.16
2023-03-10T01:49:08.105Z,91991.09
2023-03-10T01:51:40.587Z,91984.69
2023-03-10T01:54:16.577Z,91983.56
2023-03-10T01:56:47.037Z,91989.75
2023-03-10T01:59:16.908Z,91985.69
2023-03-10T02:01:46.483Z,91984.97
2023-03-10T02:04:23.473Z,91983.00
2023-03-10T02:06:54.466Z,91986.53
2023-03-10T02:09:27.133Z,91990.16
2023-03-10T02:11:57.381Z,91978.44
2023-03-10T02:14:26.855Z,91986.47
2023-03-10T02:16:56.291Z,91993.50
2023-03-10T02:19:53.647Z,91988.34
2023-03-10T02:22:23.086Z,91989.88
2023-03-10T02:24:59.574Z,91998.19
2023-03-10T02:27:34.907Z,92002.22
2023-03-10T02:30:08.606Z,91995.31
2023-03-10T02:32:45.666Z,91993.63
2023-03-10T02:35:16.071Z,91996.72
2023-03-10T02:37:45.761Z,92002.47
2023-03-10T02:40:35.093Z,92004.41
2023-03-10T02:43:13.930Z,92008.09
2023-03-10T02:45:46.179Z,92005.31
2023-03-10T02:48:21.068Z,92008.28
2023-03-10T02:50:50.792Z,92014.28
2023-03-10T02:53:22.716Z,92012.22
2023-03-10T02:55:52.442Z,92008.47
2023-03-10T02:58:25.371Z,92004.84
2023-03-10T03:00:55.881Z,92000.16
2023-03-10T03:03:26.441Z,92003.03
2023-03-10T03:05:56.250Z,92000.44
2023-03-10T03:08:25.958Z,92006.53
2023-03-10T03:10:55.733Z,92006.34
2023-03-10T03:13:26.448Z,92003.88
2023-03-10T03:15:55.985Z,92006.81
2023-03-10T03:18:25.452Z,92003.69
2023-03-10T03:20:54.810Z,92003.81
2023-03-10T03:23:24.417Z,92001.31
2023-03-10T03:25:53.785Z,92005.53
2023-03-10T03:28:24.529Z,92004.53
2023-03-10T03:30:54.004Z,92001.66
2023-03-10T03:33:23.386Z,91989.59
2023-03-10T03:35:53.045Z,91982.66
2023-03-10T03:38:22.486Z,91979.91
2023-03-10T03:40:51.914Z,91991.78
2023-03-10T03:43:21.233Z,91989.81
2023-03-10T03:45:52.180Z,91990.28
2023-03-10T03:51:28.165Z,91995.84
2023-03-10T03:53:57.549Z,91986.75
2023-03-10T03:56:26.846Z,91989.06
2023-03-10T03:58:56.133Z,91979.75
2023-03-10T04:01:25.372Z,91985.22
2023-03-10T04:03:54.774Z,91988.81
2023-03-10T04:06:24.330Z,91997.31
2023-03-10T04:08:55.026Z,91991.03
2023-03-10T04:11:24.375Z,91988.31
2023-03-10T04:13:53.754Z,91992.38
2023-03-10T04:16:30.987Z,91991.44
2023-03-10T04:19:02.756Z,91989.50
2023-03-10T04:21:32.135Z,91996.22
2023-03-10T04:24:03.030Z,91990.84
2023-03-10T04:26:32.433Z,91982.19
2023-03-10T04:29:02.177Z,91982.91
2023-03-10T04:31:31.645Z,91978.56
2023-03-10T04:34:01.112Z,91987.88
2023-03-10T04:36:30.469Z,91984.06
2023-03-10T04:39:01.793Z,91980.34
2023-03-10T04:41:31.057Z,91974.97
2023-03-10T04:44:00.625Z,91971.97
2023-03-10T04:46:31.938Z,91972.19
2023-03-10T04:49:01.310Z,91973.94
2023-03-10T04:51:30.691Z,91975.69
2023-03-10T04:54:01.731Z,91967.56
2023-03-10T04:56:30.992Z,91969.91
2023-03-10T04:59:00.910Z,91972.81
2023-03-10T05:01:33.320Z,91967.00
2023-03-10T05:04:03.860Z,91965.16
2023-03-10T05:06:34.294Z,91969.59
2023-03-10T05:09:05.290Z,91968.16
2023-03-10T05:11:35.348Z,91972.09
2023-03-10T05:14:04.825Z,91975.53
2023-03-10T05:16:34.534Z,91980.91
2023-03-10T05:19:03.898Z,91971.81
2023-03-10T05:21:33.288Z,91978.63
2023-03-10T05:24:04.793Z,91963.53
2023-03-10T05:26:35.011Z,91967.03
2023-03-10T05:29:04.714Z,91975.44
2023-03-10T05:31:34.128Z,91966.22
2023-03-10T05:34:03.616Z,91968.06
2023-03-10T05:36:33.119Z,91974.88
2023-03-10T05:39:02.953Z,91967.75
2023-03-10T05:41:33.976Z,91961.41
2023-03-10T05:44:03.366Z,91966.38
2023-03-10T05:46:33.217Z,91967.91
2023-03-10T05:49:02.629Z,91959.50
2023-03-10T05:51:32.043Z,91964.47
2023-03-10T05:54:01.467Z,91961.56
2023-03-10T05:56:30.743Z,91962.75
2023-03-10T05:59:01.494Z,91949.22
2023-03-10T06:01:30.947Z,91947.06
2023-03-10T06:04:00.569Z,91945.59
2023-03-10T06:06:30.516Z,91948.09
2023-03-10T06:09:00.246Z,91948.28
2023-03-10T06:11:29.871Z,91945.22
2023-03-10T06:14:00.802Z,91943.16
2023-03-10T06:16:30.453Z,91953.19
2023-03-10T06:19:00.513Z,91945.66
2023-03-10T06:21:29.847Z,91946.97
2023-03-10T06:23:59.509Z,91940.84
2023-03-10T06:26:28.893Z,91943.25
2023-03-10T06:28:59.642Z,91940.16
2023-03-10T06:31:30.004Z,91932.16
2023-03-10T06:34:02.062Z,91937.06
2023-03-10T06:36:33.360Z,91934.91
2023-03-10T06:39:02.815Z,91935.25
2023-03-10T06:41:32.256Z,91930.03
2023-03-10T06:44:03.194Z,91935.06
2023-03-10T06:46:32.736Z,91926.38
2023-03-10T06:51:28.075Z,91925.53
2023-03-10T06:53:57.775Z,91915.38
2023-03-10T06:56:27.210Z,91918.34
2023-03-10T06:58:56.484Z,91924.78
2023-03-10T07:01:29.269Z,91928.09
2023-03-10T07:03:58.726Z,91933.94
2023-03-10T07:09:24.535Z,91943.63
2023-03-10T07:11:53.935Z,91941.69
2023-03-10T07:14:46.792Z,91944.59
2023-03-10T07:17:15.737Z,91947.38
2023-03-10T07:19:45.458Z,91947.63
2023-03-10T07:22:16.410Z,91947.50
2023-03-10T07:24:46.134Z,91946.41
2023-03-10T07:27:15.528Z,91945.41
2023-03-10T07:29:44.838Z,91948.00
2023-03-10T07:32:14.314Z,91945.66
2023-03-10T07:34:43.849Z,91940.53
2023-03-10T07:37:14.683Z,91950.16
2023-03-10T07:39:44.124Z,91947.59
2023-03-10T07:42:13.530Z,91945.72
2023-03-10T07:44:42.925Z,91956.22
2023-03-10T07:47:12.212Z,91949.25
2023-03-10T07:49:46.697Z,91944.31
2023-03-10T07:52:18.580Z,91944.66
2023-03-10T07:54:47.920Z,91942.63
2023-03-10T07:57:18.076Z,91941.72
2023-03-10T07:59:47.455Z,91949.44
2023-03-10T08:02:17.270Z,91940.22
2023-03-10T08:04:46.795Z,91950.38
2023-03-10T08:07:17.648Z,91948.47
2023-03-10T08:09:52.283Z,91943.22
2023-03-10T08:12:23.036Z,91944.72
2023-03-10T08:14:53.376Z,91943.59
2023-03-10T08:17:23.549Z,91941.50
2023-03-10T08:19:53.027Z,91944.13
2023-03-10T08:22:23.732Z,91943.50
2023-03-10T08:24:53.048Z,91939.47
2023-03-10T08:27:22.909Z,91935.59
2023-03-10T08:29:52.627Z,91931.19
2023-03-10T08:32:22.048Z,91937.09
2023-03-10T08:34:51.332Z,91932.53
2023-03-10T08:37:20.693Z,91933.88
2023-03-10T08:39:54.025Z,91924.56
2023-03-10T08:42:23.380Z,91928.53
2023-03-10T08:44:52.890Z,91925.16
2023-03-10T08:47:23.555Z,91928.00
2023-03-10T08:49:52.925Z,91916.59
2023-03-10T08:52:22.282Z,91917.63
2023-03-10T08:54:53.049Z,91927.47
2023-03-10T08:57:22.412Z,91920.44
2023-03-10T08:59:52.902Z,91922.75
2023-03-10T09:02:22.380Z,91929.53
2023-03-10T09:04:52.261Z,91921.25
2023-03-10T09:07:21.730Z,91919.00
2023-03-10T09:09:52.653Z,91919.19
2023-03-10T09:12:22.014Z,91918.88
2023-03-10T09:14:51.569Z,91915.47
2023-03-10T09:17:21.395Z,91909.63
2023-03-10T09:19:50.795Z,91903.44
2023-03-10T09:22:20.211Z,91896.84
2023-03-10T09:24:49.677Z,91899.16
2023-03-10T09:27:20.447Z,91889.41
2023-03-10T09:29:49.856Z,91896.44
2023-03-10T09:32:19.314Z,91894.78
2023-03-10T09:34:49.029Z,91886.34
2023-03-10T09:37:18.763Z,91881.41
2023-03-10T09:39:48.189Z,91879.91
2023-03-10T09:42:38.539Z,91881.06
2023-03-10T09:45:27.132Z,91879.91
2023-03-10T09:51:30.591Z,91873.63
2023-03-10T09:54:29.192Z,91873.09
2023-03-10T09:57:04.501Z,91874.91
2023-03-10T09:59:38.881Z,91867.84
2023-03-10T10:02:20.633Z,91863.00
2023-03-10T10:04:55.750Z,91851.31
2023-03-10T10:07:42.787Z,91859.00
2023-03-10T10:10:20.221Z,91856.41
2023-03-10T10:12:54.129Z,91857.38
2023-03-10T10:15:26.360Z,91849.03
2023-03-10T10:18:19.684Z,91843.78
2023-03-10T10:20:59.178Z,91825.66
2023-03-10T10:23:42.453Z,91816.41
2023-03-10T10:26:14.775Z,91822.88
2023-03-10T10:28:50.738Z,91815.28
2023-03-10T10:31:23.728Z,91814.28
2023-03-10T10:34:01.822Z,91818.59
2023-03-10T10:36:35.311Z,91813.00
2023-03-10T10:39:24.211Z,91822.59
2023-03-10T10:41:54.063Z,91818.91
2023-03-10T10:44:23.782Z,91812.34
2023-03-10T10:46:55.662Z,91809.19
2023-03-10T10:49:27.446Z,91795.69
2023-03-10T10:52:03.451Z,91791.38
2023-03-10T10:54:40.438Z,91785.75
2023-03-10T10:57:21.436Z,91770.38
2023-03-10T10:59:50.934Z,91765.56
2023-03-10T11:02:31.932Z,91765.91
2023-03-10T11:05:15.817Z,91752.41
2023-03-10T11:07:45.576Z,91753.41
2023-03-10T11:10:20.052Z,91738.97
2023-03-10T11:13:05.813Z,91728.13
2023-03-10T11:15:39.440Z,91722.19
2023-03-10T11:18:16.508Z,91717.41
2023-03-10T11:20:55.561Z,91711.50
2023-03-10T11:23:31.010Z,91712.19
2023-03-10T11:26:12.052Z,91705.72
2023-03-10T11:28:53.408Z,91695.41
2023-03-10T11:31:38.463Z,91684.41
2023-03-10T11:34:21.259Z,91681.13
2023-03-10T11:37:02.406Z,91677.69
2023-03-10T11:39:45.787Z,91676.22
2023-03-10T11:42:27.322Z,91671.13
2023-03-10T11:45:07.233Z,91663.44
2023-03-10T11:47:53.015Z,91655.44
2023-03-10T11:50:37.574Z,91655.25
2023-03-10T11:53:15.257Z,91640.28
2023-03-10T11:55:46.675Z,91648.19
2023-03-10T11:58:27.497Z,91639.84
2023-03-10T12:00:57.501Z,91647.25
2023-03-10T12:03:48.129Z,91650.06
2023-03-10T12:06:24.352Z,91638.94
2023-03-10T12:08:58.687Z,91640.66
2023-03-10T12:11:29.469Z,91645.28
2023-03-10T12:14:03.585Z,91648.41
2023-03-10T12:16:38.209Z,91643.38
2023-03-10T12:19:08.482Z,91643.56
2023-03-10T12:21:37.952Z,91637.16
2023-03-10T12:24:14.620Z,91634.19
2023-03-10T12:27:05.644Z,91637.63
2023-03-10T12:29:43.196Z,91636.50
2023-03-10T12:32:47.486Z,91647.31
2023-03-10T12:35:51.744Z,91650.94
2023-03-10T12:38:42.917Z,91639.47
2023-03-10T12:41:13.032Z,91645.88
2023-03-10T12:44:24.635Z,91640.31
2023-03-10T12:47:01.140Z,91636.19
2023-03-10T12:51:31.344Z,91638.81
2023-03-10T12:54:06.383Z,91639.81
2023-03-10T12:56:42.227Z,91636.06
2023-03-10T12:59:20.929Z,91629.00
2023-03-10T13:01:55.986Z,91630.31
2023-03-10T13:04:28.615Z,91624.41
2023-03-10T13:07:04.306Z,91623.44
2023-03-10T13:09:41.409Z,91620.81
2023-03-10T13:12:19.449Z,91612.13
2023-03-10T13:14:53.949Z,91621.78
2023-03-10T13:17:26.680Z,91608.81
2023-03-10T13:20:08.722Z,91607.00
2023-03-10T13:22:39.790Z,91604.53
2023-03-10T13:25:16.067Z,91591.59
2023-03-10T13:27:45.644Z,91588.00
2023-03-10T13:30:20.516Z,91589.78
2023-03-10T13:32:58.556Z,91585.69
2023-03-10T13:35:33.923Z,91576.19
2023-03-10T13:38:14.514Z,91571.59
2023-03-10T13:40:46.912Z,91568.00
2023-03-10T13:43:38.221Z,91563.56
2023-03-10T13:46:14.669Z,91556.78
2023-03-10T13:48:45.882Z,91547.59
2023-03-10T13:51:24.919Z,91545.34
2023-03-10T13:54:00.416Z,91539.41
2023-03-10T13:56:36.922Z,91533.19
2023-03-10T13:59:07.692Z,91535.16
2023-03-10T14:01:48.288Z,91528.31
2023-03-10T14:04:21.228Z,91528.13
2023-03-10T14:07:09.871Z,91527.44
2023-03-10T14:09:41.112Z,91528.63
2023-03-10T14:12:11.915Z,91517.47
2023-03-10T14:14:42.453Z,91522.69
2023-03-10T14:17:31.819Z,91524.00
2023-03-10T14:20:01.280Z,91511.56
2023-03-10T14:22:38.089Z,91510.75
2023-03-10T14:25:18.948Z,91510.75
2023-03-10T14:27:51.607Z,91507.13
2023-03-10T14:30:23.910Z,91504.81
2023-03-10T14:32:53.930Z,91496.97
2023-03-10T14:35:25.358Z,91485.69
2023-03-10T14:37:55.538Z,91479.31
2023-03-10T14:40:27.826Z,91479.00
2023-03-10T14:43:02.237Z,91479.81
2023-03-10T14:45:34.927Z,91481.78
2023-03-10T14:48:09.341Z,91480.31
2023-03-10T14:50:38.918Z,91477.84
2023-03-10T14:53:12.837Z,91479.94
2023-03-10T14:55:47.890Z,91484.84
2023-03-10T14:58:22.380Z,91485.34
2023-03-10T15:00:53.218Z,91480.44
2023-03-10T15:03:23.089Z,91487.63
2023-03-10T15:05:55.391Z,91483.69
2023-03-10T15:08:24.708Z,91476.00
2023-03-10T15:10:55.577Z,91477.63
2023-03-10T15:13:26.954Z,91478.63
2023-03-10T15:15:56.455Z,91477.13
2023-03-10T15:18:28.273Z,91472.19
2023-03-10T15:21:00.487Z,91469.91
2023-03-10T15:23:30.430Z,91464.81
2023-03-10T15:26:04.071Z,91468.09
2023-03-10T15:28:33.922Z,91470.50
2023-03-10T15:31:03.997Z,91459.38
2023-03-10T15:33:33.406Z,91456.78
2023-03-10T15:36:02.905Z,91448.25
2023-03-10T15:38:32.353Z,91451.34
2023-03-10T15:41:04.810Z,91444.78
2023-03-10T15:43:34.127Z,91440.53
2023-03-10T15:46:08.836Z,91437.13
2023-03-10T15:51:27.870Z,91430.25
2023-03-10T15:53:57.250Z,91413.41
2023-03-10T15:56:27.377Z,91407.88
2023-03-10T15:58:57.187Z,91413.44
2023-03-10T16:01:26.625Z,91411.31
2023-03-10T16:03:56.027Z,91420.16
2023-03-10T16:06:28.854Z,91420.16
2023-03-10T16:08:58.503Z,91422.75
2023-03-10T16:11:28.592Z,91431.72
2023-03-10T16:13:57.979Z,91428.25
2023-03-10T16:16:27.661Z,91420.03
2023-03-10T16:18:57.117Z,91415.13
2023-03-10T16:21:27.984Z,91410.84
2023-03-10T16:23:57.393Z,91407.75
2023-03-10T16:26:27.219Z,91410.22
2023-03-10T16:28:57.456Z,91417.06
2023-03-10T16:31:28.908Z,91412.53
2023-03-10T16:33:58.635Z,91414.97
2023-03-10T16:36:30.882Z,91403.53
2023-03-10T16:39:00.346Z,91411.38
2023-03-10T16:41:29.997Z,91416.47
2023-03-10T16:43:59.416Z,91416.75
2023-03-10T16:46:30.646Z,91415.13
2023-03-10T16:49:01.667Z,91408.88
2023-03-10T16:51:35.626Z,91413.72
2023-03-10T16:54:07.646Z,91417.13
2023-03-10T16:56:39.530Z,91407.66
2023-03-10T16:59:09.729Z,91412.88
2023-03-10T17:01:39.268Z,91404.53
2023-03-10T17:04:08.896Z,91414.59
2023-03-10T17:06:40.428Z,91418.31
2023-03-10T17:09:12.909Z,91407.88
2023-03-10T17:11:45.450Z,91416.09
2023-03-10T17:14:16.457Z,91418.41
2023-03-10T17:16:47.907Z,91413.34
2023-03-10T17:19:19.930Z,91410.00
2023-03-10T17:21:52.577Z,91415.13
2023-03-10T17:24:23.630Z,91421.81
2023-03-10T17:26:53.475Z,91420.53
2023-03-10T17:29:23.093Z,91418.09
2023-03-10T17:31:52.651Z,91412.06
2023-03-10T17:34:22.415Z,91408.28
2023-03-10T17:36:54.057Z,91404.88
2023-03-10T17:39:27.791Z,91405.19
2023-03-10T17:41:57.255Z,91397.66
2023-03-10T17:44:27.186Z,91395.63
2023-03-10T17:46:57.208Z,91394.63
2023-03-10T17:49:26.557Z,91394.94
2023-03-10T17:51:57.632Z,91386.91
2023-03-10T17:54:27.329Z,91390.13
2023-03-10T17:56:56.826Z,91393.94
2023-03-10T17:59:26.209Z,91387.56
2023-03-10T18:01:55.627Z,91381.00
2023-03-10T18:04:29.820Z,91387.03
2023-03-10T18:07:00.778Z,91384.13
2023-03-10T18:09:30.231Z,91390.00
2023-03-10T18:11:59.787Z,91392.13
2023-03-10T18:14:29.399Z,91386.31
2023-03-10T18:16:58.999Z,91390.16
2023-03-10T18:19:28.291Z,91400.69
2023-03-10T18:21:58.688Z,91395.09
2023-03-10T18:24:29.595Z,91398.75
2023-03-10T18:26:59.003Z,91388.53
2023-03-10T18:29:28.337Z,91387.34
2023-03-10T18:31:57.562Z,91390.31
2023-03-10T18:34:27.018Z,91394.50
2023-03-10T18:36:56.258Z,91388.03
2023-03-10T18:39:25.895Z,91391.66
2023-03-10T18:41:57.951Z,91393.22
2023-03-10T18:44:28.673Z,91384.09
2023-03-10T18:46:58.067Z,91390.19
2023-03-10T18:51:29.579Z,91383.53
2023-03-10T18:53:58.768Z,91387.97
2023-03-10T18:56:29.477Z,91393.06
2023-03-10T18:58:58.847Z,91390.50
2023-03-10T19:01:28.258Z,91392.19
2023-03-10T19:03:57.996Z,91387.00
2023-03-10T19:06:34.593Z,91377.97
2023-03-10T19:09:08.425Z,91382.66
2023-03-10T19:11:39.419Z,91379.94
2023-03-10T19:14:09.694Z,91380.50
2023-03-10T19:16:40.859Z,91378.91
2023-03-10T19:19:10.884Z,91386.28
2023-03-10T19:21:41.750Z,91382.75
2023-03-10T19:24:11.366Z,91371.69
2023-03-10T19:26:40.903Z,91367.84
2023-03-10T19:29:10.294Z,91366.31
2023-03-10T19:31:40.156Z,91365.78
2023-03-10T19:34:09.558Z,91353.75
2023-03-10T19:36:40.590Z,91349.22
2023-03-10T19:39:09.899Z,91355.28
2023-03-10T19:41:39.328Z,91350.50
2023-03-10T19:44:08.967Z,91343.00
2023-03-10T19:46:38.317Z,91349.16
2023-03-10T19:49:08.761Z,91342.03
2023-03-10T19:51:38.052Z,91332.75
2023-03-10T19:54:08.836Z,91339.19
2023-03-10T19:56:38.309Z,91338.47
2023-03-10T19:59:07.954Z,91334.81
2023-03-10T20:01:39.143Z,91335.59
2023-03-10T20:04:08.632Z,91331.78
2023-03-10T20:06:37.929Z,91333.97
2023-03-10T20:09:10.734Z,91336.84
2023-03-10T20:11:40.072Z,91332.72
2023-03-10T20:14:10.483Z,91329.44
2023-03-10T20:16:40.242Z,91327.81
2023-03-10T20:19:09.788Z,91320.03
2023-03-10T20:21:39.177Z,91315.50
2023-03-10T20:24:10.480Z,91312.50
2023-03-10T20:26:39.869Z,91312.91
2023-03-10T20:29:09.376Z,91312.50
2023-03-10T20:31:38.926Z,91307.31
2023-03-10T20:34:09.173Z,91294.19
2023-03-10T20:36:39.982Z,91295.97
2023-03-10T20:39:11.262Z,91276.84
2023-03-10T20:41:43.259Z,91266.56
2023-03-10T20:44:14.472Z,91263.41
2023-03-10T20:46:45.244Z,91269.44
2023-03-10T20:49:15.331Z,91266.16
2023-03-10T20:51:44.727Z,91275.03
2023-03-10T20:54:15.613Z,91271.47
2023-03-10T20:56:45.065Z,91262.31
2023-03-10T20:59:14.409Z,91263.28
2023-03-10T21:01:43.829Z,91261.78
2023-03-10T21:04:13.312Z,91264.34
2023-03-10T21:06:42.774Z,91259.56
2023-03-10T21:09:14.957Z,91266.44
2023-03-10T21:11:44.298Z,91263.03
2023-03-10T21:14:13.796Z,91257.72
2023-03-10T21:16:43.595Z,91268.63
2023-03-10T21:19:13.093Z,91256.22
2023-03-10T21:21:42.593Z,91255.53
2023-03-10T21:24:12.085Z,91256.34
2023-03-10T21:26:43.195Z,91259.88
2023-03-10T21:29:12.704Z,91256.19
2023-03-10T21:31:41.999Z,91262.34
2023-03-10T21:34:11.308Z,91262.75
2023-03-10T21:36:40.703Z,91252.78
2023-03-10T21:39:10.241Z,91231.16
2023-03-10T21:41:39.641Z,91235.91
2023-03-10T21:44:11.611Z,91228.69
2023-03-10T21:46:41.086Z,91227.59
2023-03-10T21:51:28.440Z,91215.19
2023-03-10T21:53:57.778Z,91226.75
2023-03-10T21:56:29.073Z,91224.31
2023-03-10T21:58:59.714Z,91212.84
2023-03-10T22:01:29.185Z,91214.47
2023-03-10T22:03:59.773Z,91218.59
2023-03-10T22:06:30.554Z,91215.84
2023-03-10T22:08:59.851Z,91207.16
2023-03-10T22:11:29.307Z,91212.59
2023-03-10T22:13:58.593Z,91205.13
2023-03-10T22:16:27.947Z,91212.09
2023-03-10T22:18:57.360Z,91196.56
2023-03-10T22:21:26.777Z,91186.44
2023-03-10T22:23:57.562Z,91161.06
2023-03-10T22:26:27.031Z,91158.06
2023-03-10T22:28:56.299Z,91147.44
2023-03-10T22:31:25.560Z,91134.59
2023-03-10T22:33:54.953Z,91136.22
2023-03-10T22:36:24.393Z,91138.88
2023-03-10T22:38:55.301Z,91128.69
2023-03-10T22:41:24.715Z,91118.41
2023-03-10T22:43:55.620Z,91124.13
2023-03-10T22:46:25.222Z,91114.31
2023-03-10T22:48:54.870Z,91116.06
2023-03-10T22:51:24.282Z,91115.97
2023-03-10T22:53:55.707Z,91098.50
2023-03-10T22:56:25.013Z,91088.63
2023-03-10T22:58:54.252Z,91090.31
2023-03-10T23:01:24.353Z,91081.94
2023-03-10T23:03:53.745Z,91074.94
2023-03-10T23:06:24.207Z,91080.66
2023-03-10T23:08:53.685Z,91078.88
2023-03-10T23:11:25.114Z,91069.78
2023-03-10T23:13:54.518Z,91070.81
2023-03-10T23:16:24.415Z,91064.50
2023-03-10T23:18:54.022Z,91064.66
2023-03-10T23:21:23.525Z,91065.94
2023-03-10T23:23:53.018Z,91071.44
2023-03-10T23:26:23.896Z,91075.16
2023-03-10T23:28:53.366Z,91078.84
2023-03-10T23:31:22.833Z,91073.72
2023-03-10T23:33:52.406Z,91076.59
2023-03-10T23:36:21.856Z,91073.25
2023-03-10T23:38:51.148Z,91073.16
2023-03-10T23:41:20.406Z,91074.75
2023-03-10T23:43:52.316Z,91073.19
2023-03-10T23:46:22.284Z,91061.81
2023-03-10T23:48:52.488Z,91061.38
2023-03-10T23:51:21.933Z,91060.03
2023-03-10T23:53:51.282Z,91064.03
2023-03-10T23:56:20.490Z,91069.25
2023-03-10T23:58:51.309Z,91061.78
